sensor_id;sensor_type;location;lat;lon;timestamp;pressure;altitude;pressure_sealevel;temperature;humidity
56894;BME280;43392;50.078;13.704;2023-02-28T00:01:33;97994.31;;;-1.24;75.72
56894;BME280;43392;50.078;13.704;2023-02-28T00:04:00;97996.13;;;-1.24;76.00
56894;BME280;43392;50.078;13.704;2023-02-28T00:06:27;97993.47;;;-1.24;75.44
56894;BME280;43392;50.078;13.704;2023-02-28T00:08:54;97987.59;;;-1.26;76.22
56894;BME280;43392;50.078;13.704;2023-02-28T00:11:20;97992.22;;;-1.28;76.08
56894;BME280;43392;50.078;13.704;2023-02-28T00:13:47;97996.66;;;-1.29;76.40
56894;BME280;43392;50.078;13.704;2023-02-28T00:16:18;97985.28;;;-1.29;76.03
56894;BME280;43392;50.078;13.704;2023-02-28T00:18:45;97984.47;;;-1.30;75.85
56894;BME280;43392;50.078;13.704;2023-02-28T00:21:12;97986.94;;;-1.28;75.77
56894;BME280;43392;50.078;13.704;2023-02-28T00:23:39;97982.03;;;-1.31;75.28
56894;BME280;43392;50.078;13.704;2023-02-28T00:26:06;97977.75;;;-1.33;75.48
56894;BME280;43392;50.078;13.704;2023-02-28T00:28:33;97984.03;;;-1.33;76.18
56894;BME280;43392;50.078;13.704;2023-02-28T00:30:59;97976.63;;;-1.38;75.96
56894;BME280;43392;50.078;13.704;2023-02-28T00:33:28;97989.00;;;-1.39;75.75
56894;BME280;43392;50.078;13.704;2023-02-28T00:36:02;97986.50;;;-1.40;75.88
56894;BME280;43392;50.078;13.704;2023-02-28T00:38:29;97978.63;;;-1.40;75.96
56894;BME280;43392;50.078;13.704;2023-02-28T00:40:56;97986.88;;;-1.43;75.92
56894;BME280;43392;50.078;13.704;2023-02-28T00:43:23;97983.44;;;-1.44;76.17
56894;BME280;43392;50.078;13.704;2023-02-28T00:45:50;97987.88;;;-1.44;76.51
56894;BME280;43392;50.078;13.704;2023-02-28T00:48:16;97985.75;;;-1.49;76.27
56894;BME280;43392;50.078;13.704;2023-02-28T00:50:48;97988.28;;;-1.55;76.07
56894;BME280;43392;50.078;13.704;2023-02-28T00:53:14;97988.09;;;-1.54;75.96
56894;BME280;43392;50.078;13.704;2023-02-28T00:55:41;97988.09;;;-1.54;76.09
56894;BME280;43392;50.078;13.704;2023-02-28T00:58:07;97989.06;;;-1.55;76.46
56894;BME280;43392;50.078;13.704;2023-02-28T01:00:34;97985.16;;;-1.59;76.48
56894;BME280;43392;50.078;13.704;2023-02-28T01:03:01;97982.88;;;-1.62;76.57
56894;BME280;43392;50.078;13.704;2023-02-28T01:05:27;97985.06;;;-1.65;76.90
56894;BME280;43392;50.078;13.704;2023-02-28T01:07:55;97982.56;;;-1.67;76.49
56894;BME280;43392;50.078;13.704;2023-02-28T01:10:22;97989.00;;;-1.69;77.07
56894;BME280;43392;50.078;13.704;2023-02-28T01:12:48;97991.00;;;-1.71;76.64
56894;BME280;43392;50.078;13.704;2023-02-28T01:15:15;97980.00;;;-1.75;77.27
56894;BME280;43392;50.078;13.704;2023-02-28T01:17:41;97986.25;;;-1.76;77.11
56894;BME280;43392;50.078;13.704;2023-02-28T01:20:09;97979.72;;;-1.80;76.98
56894;BME280;43392;50.078;13.704;2023-02-28T01:22:36;97982.50;;;-1.81;77.38
56894;BME280;43392;50.078;13.704;2023-02-28T01:25:04;97992.22;;;-1.82;77.14
56894;BME280;43392;50.078;13.704;2023-02-28T01:27:31;97977.09;;;-1.80;77.52
56894;BME280;43392;50.078;13.704;2023-02-28T01:29:58;97982.16;;;-1.78;77.33
56894;BME280;43392;50.078;13.704;2023-02-28T01:32:24;97977.72;;;-1.78;77.53
56894;BME280;43392;50.078;13.704;2023-02-28T01:34:51;97977.91;;;-1.79;77.49
56894;BME280;43392;50.078;13.704;2023-02-28T01:37:17;97979.72;;;-1.80;77.37
56894;BME280;43392;50.078;13.704;2023-02-28T01:39:44;97978.69;;;-1.79;77.86
56894;BME280;43392;50.078;13.704;2023-02-28T01:42:12;97976.06;;;-1.79;77.86
56894;BME280;43392;50.078;13.704;2023-02-28T01:44:58;97971.81;;;-1.80;78.01
56894;BME280;43392;50.078;13.704;2023-02-28T01:47:27;97973.81;;;-1.82;77.93
56894;BME280;43392;50.078;13.704;2023-02-28T01:49:54;97965.75;;;-1.80;78.24
56894;BME280;43392;50.078;13.704;2023-02-28T01:52:22;97965.94;;;-1.82;77.74
56894;BME280;43392;50.078;13.704;2023-02-28T01:54:52;97964.09;;;-1.81;78.07
56894;BME280;43392;50.078;13.704;2023-02-28T01:57:24;97971.81;;;-1.80;78.20
56894;BME280;43392;50.078;13.704;2023-02-28T01:59:54;97960.16;;;-1.77;78.26
56894;BME280;43392;50.078;13.704;2023-02-28T02:02:24;97956.34;;;-1.75;78.31
56894;BME280;43392;50.078;13.704;2023-02-28T02:04:54;97946.47;;;-1.73;78.20
56894;BME280;43392;50.078;13.704;2023-02-28T02:07:21;97955.00;;;-1.71;78.50
56894;BME280;43392;50.078;13.704;2023-02-28T02:09:49;97952.19;;;-1.69;78.28
56894;BME280;43392;50.078;13.704;2023-02-28T02:12:27;97945.94;;;-1.68;78.24
56894;BME280;43392;50.078;13.704;2023-02-28T02:15:04;97938.88;;;-1.68;78.10
56894;BME280;43392;50.078;13.704;2023-02-28T02:17:38;97945.75;;;-1.67;77.89
56894;BME280;43392;50.078;13.704;2023-02-28T02:20:31;97946.44;;;-1.65;77.84
56894;BME280;43392;50.078;13.704;2023-02-28T02:23:29;97943.81;;;-1.65;77.66
56894;BME280;43392;50.078;13.704;2023-02-28T02:26:08;97940.81;;;-1.62;78.06
56894;BME280;43392;50.078;13.704;2023-02-28T02:28:57;97939.81;;;-1.61;77.93
56894;BME280;43392;50.078;13.704;2023-02-28T02:31:50;97945.09;;;-1.61;78.15
56894;BME280;43392;50.078;13.704;2023-02-28T02:34:39;97928.28;;;-1.60;78.09
56894;BME280;43392;50.078;13.704;2023-02-28T02:37:21;97946.69;;;-1.60;77.90
56894;BME280;43392;50.078;13.704;2023-02-28T02:40:00;97937.19;;;-1.61;78.03
56894;BME280;43392;50.078;13.704;2023-02-28T02:42:36;97944.25;;;-1.61;78.02
56894;BME280;43392;50.078;13.704;2023-02-28T02:45:09;97942.44;;;-1.61;78.15
56894;BME280;43392;50.078;13.704;2023-02-28T02:47:39;97943.28;;;-1.60;77.99
56894;BME280;43392;50.078;13.704;2023-02-28T02:50:13;97943.09;;;-1.59;77.54
56894;BME280;43392;50.078;13.704;2023-02-28T02:52:43;97938.81;;;-1.60;78.32
56894;BME280;43392;50.078;13.704;2023-02-28T02:55:13;97939.81;;;-1.61;78.10
56894;BME280;43392;50.078;13.704;2023-02-28T02:57:45;97939.81;;;-1.61;78.35
56894;BME280;43392;50.078;13.704;2023-02-28T03:00:14;97944.25;;;-1.61;77.99
56894;BME280;43392;50.078;13.704;2023-02-28T03:02:42;97947.72;;;-1.61;78.30
56894;BME280;43392;50.078;13.704;2023-02-28T03:05:18;97953.94;;;-1.62;77.84
56894;BME280;43392;50.078;13.704;2023-02-28T03:07:45;97945.25;;;-1.62;77.71
56894;BME280;43392;50.078;13.704;2023-02-28T03:10:32;97948.34;;;-1.59;77.64
56894;BME280;43392;50.078;13.704;2023-02-28T03:13:42;97955.06;;;-1.56;77.60
56894;BME280;43392;50.078;13.704;2023-02-28T03:19:18;97952.09;;;-1.53;77.86
56894;BME280;43392;50.078;13.704;2023-02-28T03:22:01;97948.31;;;-1.51;77.21
56894;BME280;43392;50.078;13.704;2023-02-28T03:24:34;97943.91;;;-1.58;77.50
56894;BME280;43392;50.078;13.704;2023-02-28T03:27:07;97949.00;;;-1.57;77.08
56894;BME280;43392;50.078;13.704;2023-02-28T03:29:37;97942.09;;;-1.58;77.27
56894;BME280;43392;50.078;13.704;2023-02-28T03:32:10;97949.81;;;-1.56;77.41
56894;BME280;43392;50.078;13.704;2023-02-28T03:34:41;97950.00;;;-1.58;77.00
56894;BME280;43392;50.078;13.704;2023-02-28T03:37:16;97940.28;;;-1.57;77.21
56894;BME280;43392;50.078;13.704;2023-02-28T03:39:47;97947.38;;;-1.58;76.92
56894;BME280;43392;50.078;13.704;2023-02-28T03:42:18;97942.25;;;-1.59;77.08
56894;BME280;43392;50.078;13.704;2023-02-28T03:44:49;97945.41;;;-1.64;77.03
56894;BME280;43392;50.078;13.704;2023-02-28T03:47:20;97944.06;;;-1.60;77.25
56894;BME280;43392;50.078;13.704;2023-02-28T03:49:53;97939.63;;;-1.59;77.38
56894;BME280;43392;50.078;13.704;2023-02-28T03:52:27;97953.59;;;-1.59;77.22
56894;BME280;43392;50.078;13.704;2023-02-28T03:54:59;97937.00;;;-1.59;76.56
56894;BME280;43392;50.078;13.704;2023-02-28T03:57:33;97941.91;;;-1.56;76.93
56894;BME280;43392;50.078;13.704;2023-02-28T04:00:04;97941.91;;;-1.56;76.64
56894;BME280;43392;50.078;13.704;2023-02-28T04:02:32;97945.19;;;-1.54;76.66
56894;BME280;43392;50.078;13.704;2023-02-28T04:04:59;97938.94;;;-1.53;76.65
56894;BME280;43392;50.078;13.704;2023-02-28T04:07:30;97951.09;;;-1.52;76.24
56894;BME280;43392;50.078;13.704;2023-02-28T04:09:57;97949.94;;;-0.75;94.81
56894;BME280;43392;50.078;13.704;2023-02-28T04:12:24;97960.13;;;-0.28;89.87
56894;BME280;43392;50.078;13.704;2023-02-28T04:14:50;97950.22;;;-0.41;77.65
56894;BME280;43392;50.078;13.704;2023-02-28T04:17:17;97949.03;;;-0.68;76.00
56894;BME280;43392;50.078;13.704;2023-02-28T04:19:44;97956.00;;;-0.89;75.56
56894;BME280;43392;50.078;13.704;2023-02-28T04:22:11;97953.88;;;-1.08;75.48
56894;BME280;43392;50.078;13.704;2023-02-28T04:24:40;97951.03;;;-1.21;76.12
56894;BME280;43392;50.078;13.704;2023-02-28T04:27:07;97950.13;;;-1.28;75.81
56894;BME280;43392;50.078;13.704;2023-02-28T04:29:34;97955.25;;;-1.35;75.92
56894;BME280;43392;50.078;13.704;2023-02-28T04:32:01;97958.41;;;-1.40;75.63
56894;BME280;43392;50.078;13.704;2023-02-28T04:34:30;97961.38;;;-1.43;75.85
56894;BME280;43392;50.078;13.704;2023-02-28T04:36:57;97959.28;;;-1.47;75.78
56894;BME280;43392;50.078;13.704;2023-02-28T04:39:25;97953.38;;;-1.49;75.55
56894;BME280;43392;50.078;13.704;2023-02-28T04:41:53;97952.56;;;-1.50;75.76
56894;BME280;43392;50.078;13.704;2023-02-28T04:44:20;97949.63;;;-1.55;74.85
56894;BME280;43392;50.078;13.704;2023-02-28T04:46:47;97960.69;;;-1.59;74.37
56894;BME280;43392;50.078;13.704;2023-02-28T04:49:14;97958.75;;;-1.65;74.12
56894;BME280;43392;50.078;13.704;2023-02-28T04:51:41;97954.03;;;-1.70;74.83
56894;BME280;43392;50.078;13.704;2023-02-28T04:54:08;97954.19;;;-1.71;74.75
56894;BME280;43392;50.078;13.704;2023-02-28T04:56:35;97963.06;;;-1.72;75.19
56894;BME280;43392;50.078;13.704;2023-02-28T04:59:03;97955.34;;;-1.74;74.71
56894;BME280;43392;50.078;13.704;2023-02-28T05:01:31;97962.78;;;-1.77;74.50
56894;BME280;43392;50.078;13.704;2023-02-28T05:04:00;97966.56;;;-1.80;74.53
56894;BME280;43392;50.078;13.704;2023-02-28T05:06:30;97961.84;;;-1.84;74.72
56894;BME280;43392;50.078;13.704;2023-02-28T05:08:57;97963.00;;;-1.87;74.80
56894;BME280;43392;50.078;13.704;2023-02-28T05:11:26;97968.59;;;-1.90;74.38
56894;BME280;43392;50.078;13.704;2023-02-28T05:13:54;97978.47;;;-1.92;75.04
56894;BME280;43392;50.078;13.704;2023-02-28T05:16:22;97977.00;;;-1.94;74.80
56894;BME280;43392;50.078;13.704;2023-02-28T05:18:49;97978.16;;;-1.97;74.77
56894;BME280;43392;50.078;13.704;2023-02-28T05:21:24;97973.25;;;-2.00;74.85
56894;BME280;43392;50.078;13.704;2023-02-28T05:23:51;97977.66;;;-2.01;74.44
56894;BME280;43392;50.078;13.704;2023-02-28T05:26:18;97970.94;;;-2.03;74.24
56894;BME280;43392;50.078;13.704;2023-02-28T05:28:44;97979.19;;;-2.06;73.84
56894;BME280;43392;50.078;13.704;2023-02-28T05:31:11;97991.50;;;-2.07;74.33
56894;BME280;43392;50.078;13.704;2023-02-28T05:33:39;97976.06;;;-2.10;73.66
56894;BME280;43392;50.078;13.704;2023-02-28T05:36:07;97990.38;;;-2.12;73.65
56894;BME280;43392;50.078;13.704;2023-02-28T05:38:34;97996.97;;;-2.16;73.71
56894;BME280;43392;50.078;13.704;2023-02-28T05:41:05;98000.91;;;-2.20;73.94
56894;BME280;43392;50.078;13.704;2023-02-28T05:43:32;97999.94;;;-2.27;73.64
56894;BME280;43392;50.078;13.704;2023-02-28T05:45:58;97995.06;;;-2.30;73.74
56894;BME280;43392;50.078;13.704;2023-02-28T05:48:25;97998.16;;;-2.35;74.12
56894;BME280;43392;50.078;13.704;2023-02-28T05:50:53;98000.97;;;-2.36;73.50
56894;BME280;43392;50.078;13.704;2023-02-28T05:53:23;98001.47;;;-2.41;73.55
56894;BME280;43392;50.078;13.704;2023-02-28T05:55:49;98005.75;;;-2.40;73.98
56894;BME280;43392;50.078;13.704;2023-02-28T05:58:16;98007.19;;;-2.37;74.20
56894;BME280;43392;50.078;13.704;2023-02-28T06:00:42;98003.59;;;-2.36;73.90
56894;BME280;43392;50.078;13.704;2023-02-28T06:03:09;98010.66;;;-2.37;74.30
56894;BME280;43392;50.078;13.704;2023-02-28T06:05:36;98009.66;;;-2.36;74.14
56894;BME280;43392;50.078;13.704;2023-02-28T06:08:05;98017.38;;;-2.34;74.33
56894;BME280;43392;50.078;13.704;2023-02-28T06:10:32;98022.47;;;-2.33;74.10
56894;BME280;43392;50.078;13.704;2023-02-28T06:12:59;98028.69;;;-2.34;74.22
56894;BME280;43392;50.078;13.704;2023-02-28T06:15:28;98017.56;;;-2.36;74.21
56894;BME280;43392;50.078;13.704;2023-02-28T06:17:55;98021.78;;;-2.35;74.12
56894;BME280;43392;50.078;13.704;2023-02-28T06:20:23;98028.69;;;-2.34;74.58
56894;BME280;43392;50.078;13.704;2023-02-28T06:22:51;98028.88;;;-2.35;74.25
56894;BME280;43392;50.078;13.704;2023-02-28T06:25:21;98030.03;;;-2.38;74.01
56894;BME280;43392;50.078;13.704;2023-02-28T06:27:47;98033.78;;;-2.32;74.22
56894;BME280;43392;50.078;13.704;2023-02-28T06:30:14;98032.16;;;-2.33;74.23
56894;BME280;43392;50.078;13.704;2023-02-28T06:32:41;98041.50;;;-2.31;73.88
56894;BME280;43392;50.078;13.704;2023-02-28T06:35:08;98039.53;;;-2.29;74.12
56894;BME280;43392;50.078;13.704;2023-02-28T06:37:35;98043.81;;;-2.28;74.24
56894;BME280;43392;50.078;13.704;2023-02-28T06:40:02;98045.91;;;-2.23;73.85
56894;BME280;43392;50.078;13.704;2023-02-28T06:42:33;98045.25;;;-2.25;73.50
56894;BME280;43392;50.078;13.704;2023-02-28T06:44:59;98057.59;;;-2.26;73.94
56894;BME280;43392;50.078;13.704;2023-02-28T06:47:30;98047.22;;;-2.27;73.96
56894;BME280;43392;50.078;13.704;2023-02-28T06:49:56;98064.63;;;-2.18;74.00
56894;BME280;43392;50.078;13.704;2023-02-28T06:52:23;98062.00;;;-2.18;73.03
56894;BME280;43392;50.078;13.704;2023-02-28T06:54:49;98060.69;;;-2.22;73.35
56894;BME280;43392;50.078;13.704;2023-02-28T06:57:24;98072.50;;;-2.18;73.51
56894;BME280;43392;50.078;13.704;2023-02-28T06:59:52;98063.28;;;-2.14;73.72
56894;BME280;43392;50.078;13.704;2023-02-28T07:02:19;98070.50;;;-2.08;73.46
56894;BME280;43392;50.078;13.704;2023-02-28T07:04:45;98072.44;;;-2.02;73.22
56894;BME280;43392;50.078;13.704;2023-02-28T07:07:12;98063.22;;;-1.98;72.68
56894;BME280;43392;50.078;13.704;2023-02-28T07:09:39;98069.81;;;-1.94;72.98
56894;BME280;43392;50.078;13.704;2023-02-28T07:12:05;98069.28;;;-1.89;73.11
56894;BME280;43392;50.078;13.704;2023-02-28T07:14:32;98072.06;;;-1.83;72.02
56894;BME280;43392;50.078;13.704;2023-02-28T07:17:00;98075.84;;;-1.85;72.05
56894;BME280;43392;50.078;13.704;2023-02-28T07:19:26;98079.28;;;-1.85;71.94
56894;BME280;43392;50.078;13.704;2023-02-28T07:21:53;98078.97;;;-1.82;71.94
56894;BME280;43392;50.078;13.704;2023-02-28T07:24:20;98077.81;;;-1.79;72.14
56894;BME280;43392;50.078;13.704;2023-02-28T07:26:48;98085.19;;;-1.75;71.90
56894;BME280;43392;50.078;13.704;2023-02-28T07:29:15;98081.69;;;-1.67;72.15
56894;BME280;43392;50.078;13.704;2023-02-28T07:31:42;98081.69;;;-1.67;70.60
56894;BME280;43392;50.078;13.704;2023-02-28T07:34:10;98084.34;;;-1.75;70.43
56894;BME280;43392;50.078;13.704;2023-02-28T07:36:36;98085.19;;;-1.75;71.43
56894;BME280;43392;50.078;13.704;2023-02-28T07:39:03;98086.47;;;-1.71;71.67
56894;BME280;43392;50.078;13.704;2023-02-28T07:41:30;98092.03;;;-1.66;70.93
56894;BME280;43392;50.078;13.704;2023-02-28T07:43:59;98095.63;;;-1.59;70.76
56894;BME280;43392;50.078;13.704;2023-02-28T07:46:26;98088.22;;;-1.55;70.26
56894;BME280;43392;50.078;13.704;2023-02-28T07:48:54;98084.88;;;-1.49;70.12
56894;BME280;43392;50.078;13.704;2023-02-28T07:51:26;98082.38;;;-1.43;70.40
56894;BME280;43392;50.078;13.704;2023-02-28T07:53:52;98086.31;;;-1.39;69.81
56894;BME280;43392;50.078;13.704;2023-02-28T07:56:19;98085.81;;;-1.34;69.74
56894;BME280;43392;50.078;13.704;2023-02-28T07:58:45;98080.84;;;-1.29;69.92
56894;BME280;43392;50.078;13.704;2023-02-28T08:01:13;98092.66;;;-1.25;69.61
56894;BME280;43392;50.078;13.704;2023-02-28T08:03:40;98086.84;;;-1.20;68.82
56894;BME280;43392;50.078;13.704;2023-02-28T08:06:09;98074.72;;;-1.21;69.04
56894;BME280;43392;50.078;13.704;2023-02-28T08:08:42;98085.16;;;-1.13;68.81
56894;BME280;43392;50.078;13.704;2023-02-28T08:11:09;98083.53;;;-1.14;67.97
56894;BME280;43392;50.078;13.704;2023-02-28T08:13:36;98088.94;;;-1.08;68.60
56894;BME280;43392;50.078;13.704;2023-02-28T08:16:02;98082.59;;;-0.99;68.71
56894;BME280;43392;50.078;13.704;2023-02-28T08:18:29;98075.00;;;-0.94;67.66
56894;BME280;43392;50.078;13.704;2023-02-28T08:20:56;98086.16;;;-0.92;67.92
56894;BME280;43392;50.078;13.704;2023-02-28T08:23:22;98070.22;;;-0.90;67.66
56894;BME280;43392;50.078;13.704;2023-02-28T08:25:54;98080.84;;;-0.84;67.46
56894;BME280;43392;50.078;13.704;2023-02-28T08:28:20;98075.25;;;-0.81;67.07
56894;BME280;43392;50.078;13.704;2023-02-28T08:30:47;98077.53;;;-0.78;66.67
56894;BME280;43392;50.078;13.704;2023-02-28T08:33:14;98077.63;;;-0.71;66.98
56894;BME280;43392;50.078;13.704;2023-02-28T08:35:40;98072.94;;;-0.61;67.21
56894;BME280;43392;50.078;13.704;2023-02-28T08:38:07;98075.88;;;-0.56;66.40
56894;BME280;43392;50.078;13.704;2023-02-28T08:40:33;98081.56;;;-0.52;66.67
56894;BME280;43392;50.078;13.704;2023-02-28T08:43:01;98075.69;;;-0.54;65.93
56894;BME280;43392;50.078;13.704;2023-02-28T08:45:28;98072.66;;;-0.66;65.64
56894;BME280;43392;50.078;13.704;2023-02-28T08:47:55;98076.91;;;-0.65;66.07
56894;BME280;43392;50.078;13.704;2023-02-28T08:50:21;98081.19;;;-0.64;66.02
56894;BME280;43392;50.078;13.704;2023-02-28T08:52:48;98084.75;;;-0.57;65.87
56894;BME280;43392;50.078;13.704;2023-02-28T08:55:15;98087.91;;;-0.61;66.23
56894;BME280;43392;50.078;13.704;2023-02-28T08:57:41;98081.63;;;-0.60;65.63
56894;BME280;43392;50.078;13.704;2023-02-28T09:00:10;98090.38;;;-0.60;66.50
56894;BME280;43392;50.078;13.704;2023-02-28T09:02:38;98089.31;;;-0.36;66.71
56894;BME280;43392;50.078;13.704;2023-02-28T09:05:06;98097.25;;;-0.22;66.23
56894;BME280;43392;50.078;13.704;2023-02-28T09:07:32;98086.44;;;-0.12;64.99
56894;BME280;43392;50.078;13.704;2023-02-28T09:09:59;98083.75;;;-0.04;64.54
56894;BME280;43392;50.078;13.704;2023-02-28T09:12:27;98086.09;;;0.06;64.22
56894;BME280;43392;50.078;13.704;2023-02-28T09:14:58;98085.66;;;0.17;64.25
56894;BME280;43392;50.078;13.704;2023-02-28T09:17:25;98091.03;;;0.23;63.29
56894;BME280;43392;50.078;13.704;2023-02-28T09:19:52;98084.56;;;0.26;63.27
56894;BME280;43392;50.078;13.704;2023-02-28T09:22:19;98082.19;;;0.31;62.58
56894;BME280;43392;50.078;13.704;2023-02-28T09:24:45;98086.72;;;0.37;63.13
56894;BME280;43392;50.078;13.704;2023-02-28T09:27:12;98083.53;;;0.41;62.57
56894;BME280;43392;50.078;13.704;2023-02-28T09:29:38;98084.63;;;0.47;62.27
56894;BME280;43392;50.078;13.704;2023-02-28T09:32:05;98090.72;;;0.47;62.64
56894;BME280;43392;50.078;13.704;2023-02-28T09:34:33;98081.97;;;0.61;62.88
56894;BME280;43392;50.078;13.704;2023-02-28T09:37:02;98084.56;;;0.76;62.59
56894;BME280;43392;50.078;13.704;2023-02-28T09:39:28;98081.06;;;0.90;63.03
56894;BME280;43392;50.078;13.704;2023-02-28T09:41:56;98082.03;;;1.04;62.20
56894;BME280;43392;50.078;13.704;2023-02-28T09:44:28;98086.66;;;1.02;61.06
56894;BME280;43392;50.078;13.704;2023-02-28T09:46:57;98091.38;;;0.85;60.92
56894;BME280;43392;50.078;13.704;2023-02-28T09:49:31;98086.66;;;0.81;61.74
56894;BME280;43392;50.078;13.704;2023-02-28T09:52:02;98089.69;;;0.63;62.83
56894;BME280;43392;50.078;13.704;2023-02-28T09:54:30;98087.53;;;0.52;62.26
56894;BME280;43392;50.078;13.704;2023-02-28T09:57:00;98097.59;;;0.63;60.82
56894;BME280;43392;50.078;13.704;2023-02-28T09:59:48;98098.91;;;0.52;60.09
56894;BME280;43392;50.078;13.704;2023-02-28T10:02:38;98101.91;;;0.64;59.76
56894;BME280;43392;50.078;13.704;2023-02-28T10:05:11;98099.44;;;0.62;59.77
56894;BME280;43392;50.078;13.704;2023-02-28T10:07:51;98094.81;;;0.64;58.61
56894;BME280;43392;50.078;13.704;2023-02-28T10:10:26;98090.06;;;0.75;58.12
56894;BME280;43392;50.078;13.704;2023-02-28T10:12:56;98098.50;;;0.85;58.28
56894;BME280;43392;50.078;13.704;2023-02-28T10:15:27;98098.38;;;0.93;58.69
56894;BME280;43392;50.078;13.704;2023-02-28T10:17:58;98087.88;;;0.99;58.09
56894;BME280;43392;50.078;13.704;2023-02-28T10:20:27;98108.72;;;1.09;58.09
56894;BME280;43392;50.078;13.704;2023-02-28T10:23:02;98093.97;;;1.00;57.19
56894;BME280;43392;50.078;13.704;2023-02-28T10:25:33;98087.75;;;0.86;57.03
56894;BME280;43392;50.078;13.704;2023-02-28T10:28:05;98092.97;;;0.80;58.14
56894;BME280;43392;50.078;13.704;2023-02-28T10:30:36;98088.25;;;0.96;58.46
56894;BME280;43392;50.078;13.704;2023-02-28T10:33:08;98090.38;;;0.86;57.41
56894;BME280;43392;50.078;13.704;2023-02-28T10:35:38;98087.50;;;1.02;58.06
56894;BME280;43392;50.078;13.704;2023-02-28T10:38:15;98090.53;;;1.20;58.83
56894;BME280;43392;50.078;13.704;2023-02-28T10:40:42;98080.28;;;1.32;57.57
56894;BME280;43392;50.078;13.704;2023-02-28T10:43:19;98087.50;;;1.45;57.20
56894;BME280;43392;50.078;13.704;2023-02-28T10:45:57;98078.13;;;1.42;56.66
56894;BME280;43392;50.078;13.704;2023-02-28T10:48:29;98077.94;;;1.44;55.62
56894;BME280;43392;50.078;13.704;2023-02-28T10:50:56;98076.13;;;1.44;55.94
56894;BME280;43392;50.078;13.704;2023-02-28T10:53:37;98068.75;;;1.40;55.38
56894;BME280;43392;50.078;13.704;2023-02-28T10:56:14;98066.22;;;1.53;56.88
56894;BME280;43392;50.078;13.704;2023-02-28T10:58:49;98062.38;;;1.55;55.48
56894;BME280;43392;50.078;13.704;2023-02-28T11:01:18;98075.78;;;1.54;55.94
56894;BME280;43392;50.078;13.704;2023-02-28T11:03:45;98068.84;;;1.53;56.69
56894;BME280;43392;50.078;13.704;2023-02-28T11:06:17;98066.09;;;1.61;56.23
56894;BME280;43392;50.078;13.704;2023-02-28T11:08:49;98069.53;;;1.61;55.25
56894;BME280;43392;50.078;13.704;2023-02-28T11:11:18;98068.38;;;1.70;56.82
56894;BME280;43392;50.078;13.704;2023-02-28T11:13:46;98062.09;;;1.71;55.70
56894;BME280;43392;50.078;13.704;2023-02-28T11:16:15;98051.34;;;1.79;56.05
56894;BME280;43392;50.078;13.704;2023-02-28T11:18:46;98062.81;;;1.86;57.69
56894;BME280;43392;50.078;13.704;2023-02-28T11:21:20;98052.91;;;1.95;56.93
56894;BME280;43392;50.078;13.704;2023-02-28T11:23:51;98058.81;;;1.97;56.93
56894;BME280;43392;50.078;13.704;2023-02-28T11:26:37;98055.19;;;2.05;56.20
56894;BME280;43392;50.078;13.704;2023-02-28T11:29:11;98057.22;;;2.03;54.84
56894;BME280;43392;50.078;13.704;2023-02-28T11:31:38;98055.88;;;2.13;55.18
56894;BME280;43392;50.078;13.704;2023-02-28T11:34:22;98060.97;;;2.15;57.00
56894;BME280;43392;50.078;13.704;2023-02-28T11:36:49;98053.50;;;2.31;57.44
56894;BME280;43392;50.078;13.704;2023-02-28T11:39:19;98064.91;;;2.32;54.34
56894;BME280;43392;50.078;13.704;2023-02-28T11:41:57;98049.00;;;2.25;54.66
56894;BME280;43392;50.078;13.704;2023-02-28T11:44:37;98046.94;;;2.21;55.24
56894;BME280;43392;50.078;13.704;2023-02-28T11:47:13;98046.38;;;2.25;56.32
56894;BME280;43392;50.078;13.704;2023-02-28T11:49:48;98049.03;;;2.32;56.20
56894;BME280;43392;50.078;13.704;2023-02-28T11:52:26;98045.34;;;2.26;55.14
56894;BME280;43392;50.078;13.704;2023-02-28T11:55:07;98036.78;;;2.24;55.22
56894;BME280;43392;50.078;13.704;2023-02-28T12:00:57;98037.66;;;2.38;56.42
56894;BME280;43392;50.078;13.704;2023-02-28T12:03:29;98034.00;;;2.45;56.25
56894;BME280;43392;50.078;13.704;2023-02-28T12:06:07;98031.97;;;2.47;56.18
56894;BME280;43392;50.078;13.704;2023-02-28T12:08:57;98031.59;;;2.50;55.08
56894;BME280;43392;50.078;13.704;2023-02-28T12:11:35;98026.91;;;2.52;56.34
56894;BME280;43392;50.078;13.704;2023-02-28T12:17:22;98027.34;;;2.62;53.52
56894;BME280;43392;50.078;13.704;2023-02-28T12:20:00;98025.94;;;2.66;53.94
56894;BME280;43392;50.078;13.704;2023-02-28T12:22:31;98022.28;;;2.67;54.50
56894;BME280;43392;50.078;13.704;2023-02-28T12:25:24;98019.84;;;2.66;53.15
56894;BME280;43392;50.078;13.704;2023-02-28T12:28:02;98012.28;;;2.56;53.87
56894;BME280;43392;50.078;13.704;2023-02-28T12:30:32;98017.59;;;2.56;54.23
56894;BME280;43392;50.078;13.704;2023-02-28T12:33:03;98012.69;;;2.60;54.00
56894;BME280;43392;50.078;13.704;2023-02-28T12:35:34;98014.72;;;2.64;53.99
56894;BME280;43392;50.078;13.704;2023-02-28T12:38:04;98012.91;;;2.65;54.60
56894;BME280;43392;50.078;13.704;2023-02-28T12:40:41;98015.34;;;2.66;53.38
56894;BME280;43392;50.078;13.704;2023-02-28T12:43:13;98014.09;;;2.56;53.97
56894;BME280;43392;50.078;13.704;2023-02-28T12:45:44;98014.28;;;2.54;52.80
56894;BME280;43392;50.078;13.704;2023-02-28T12:48:15;98012.69;;;2.53;52.83
56894;BME280;43392;50.078;13.704;2023-02-28T12:50:47;98013.69;;;2.52;54.16
56894;BME280;43392;50.078;13.704;2023-02-28T12:53:20;98009.84;;;2.61;55.83
56894;BME280;43392;50.078;13.704;2023-02-28T12:55:58;98007.03;;;2.76;55.96
56894;BME280;43392;50.078;13.704;2023-02-28T12:58:34;98007.28;;;2.88;55.08
56894;BME280;43392;50.078;13.704;2023-02-28T13:01:21;98004.41;;;2.89;52.90
56894;BME280;43392;50.078;13.704;2023-02-28T13:04:11;98001.38;;;2.86;53.25
56894;BME280;43392;50.078;13.704;2023-02-28T13:06:57;98017.81;;;2.75;51.56
56894;BME280;43392;50.078;13.704;2023-02-28T13:09:26;98014.34;;;2.74;53.53
56894;BME280;43392;50.078;13.704;2023-02-28T13:11:55;98014.78;;;2.78;52.74
56894;BME280;43392;50.078;13.704;2023-02-28T13:14:26;98002.75;;;2.75;52.10
56894;BME280;43392;50.078;13.704;2023-02-28T13:16:58;98003.97;;;2.79;52.03
56894;BME280;43392;50.078;13.704;2023-02-28T13:19:27;97999.94;;;2.83;53.94